sensor_id;sensor_type;location;lat;lon;timestamp;P1;durP1;ratioP1;P2;durP2;ratioP2
69795;SDS011;57073;45.650;9.612;2022-07-30T00:00:03;1.60;;;1.30;;
69795;SDS011;57073;45.650;9.612;2022-07-30T00:02:05;2.05;;;1.23;;
69795;SDS011;57073;45.650;9.612;2022-07-30T00:04:05;2.77;;;1.33;;
69795;SDS011;57073;45.650;9.612;2022-07-30T00:06:06;2.05;;;1.30;;
69795;SDS011;57073;45.650;9.612;2022-07-30T00:08:06;1.90;;;1.20;;
69795;SDS011;57073;45.650;9.612;2022-07-30T00:10:07;1.47;;;1.10;;
69795;SDS011;57073;45.650;9.612;2022-07-30T00:12:08;2.70;;;1.55;;
69795;SDS011;57073;45.650;9.612;2022-07-30T00:14:08;2.20;;;1.27;;
69795;SDS011;57073;45.650;9.612;2022-07-30T00:16:09;2.58;;;1.40;;
69795;SDS011;57073;45.650;9.612;2022-07-30T00:18:10;3.43;;;1.20;;
69795;SDS011;57073;45.650;9.612;2022-07-30T00:20:11;2.30;;;1.08;;
69795;SDS011;57073;45.650;9.612;2022-07-30T00:22:11;1.47;;;1.20;;
69795;SDS011;57073;45.650;9.612;2022-07-30T00:24:12;2.70;;;1.10;;
69795;SDS011;57073;45.650;9.612;2022-07-30T00:26:12;3.55;;;1.20;;
69795;SDS011;57073;45.650;9.612;2022-07-30T00:28:13;2.20;;;1.20;;
69795;SDS011;57073;45.650;9.612;2022-07-30T00:30:13;2.90;;;1.20;;
69795;SDS011;57073;45.650;9.612;2022-07-30T00:32:14;1.55;;;1.00;;
69795;SDS011;57073;45.650;9.612;2022-07-30T00:34:14;2.70;;;1.10;;
69795;SDS011;57073;45.650;9.612;2022-07-30T00:36:18;1.90;;;1.40;;
69795;SDS011;57073;45.650;9.612;2022-07-30T00:38:18;2.30;;;1.20;;
69795;SDS011;57073;45.650;9.612;2022-07-30T00:40:19;2.73;;;1.20;;
69795;SDS011;57073;45.650;9.612;2022-07-30T00:42:19;1.80;;;1.20;;
69795;SDS011;57073;45.650;9.612;2022-07-30T00:44:24;2.53;;;1.60;;
69795;SDS011;57073;45.650;9.612;2022-07-30T00:46:25;2.00;;;1.40;;
69795;SDS011;57073;45.650;9.612;2022-07-30T00:48:26;1.97;;;1.30;;
69795;SDS011;57073;45.650;9.612;2022-07-30T00:50:26;2.13;;;1.27;;
69795;SDS011;57073;45.650;9.612;2022-07-30T00:52:26;2.83;;;1.50;;
69795;SDS011;57073;45.650;9.612;2022-07-30T00:54:27;2.40;;;1.40;;
69795;SDS011;57073;45.650;9.612;2022-07-30T00:56:27;6.43;;;1.80;;
69795;SDS011;57073;45.650;9.612;2022-07-30T00:58:28;2.00;;;1.40;;
69795;SDS011;57073;45.650;9.612;2022-07-30T01:00:28;1.95;;;1.30;;
69795;SDS011;57073;45.650;9.612;2022-07-30T01:02:29;3.07;;;1.77;;
69795;SDS011;57073;45.650;9.612;2022-07-30T01:04:29;2.38;;;1.25;;
69795;SDS011;57073;45.650;9.612;2022-07-30T01:06:30;2.80;;;1.20;;
69795;SDS011;57073;45.650;9.612;2022-07-30T01:08:30;2.03;;;1.30;;
69795;SDS011;57073;45.650;9.612;2022-07-30T01:10:30;1.60;;;1.20;;
69795;SDS011;57073;45.650;9.612;2022-07-30T01:12:31;1.80;;;1.10;;
69795;SDS011;57073;45.650;9.612;2022-07-30T01:14:35;1.87;;;1.27;;
69795;SDS011;57073;45.650;9.612;2022-07-30T01:16:37;2.15;;;1.15;;
69795;SDS011;57073;45.650;9.612;2022-07-30T01:18:41;2.40;;;1.10;;
69795;SDS011;57073;45.650;9.612;2022-07-30T01:21:06;2.92;;;1.00;;
69795;SDS011;57073;45.650;9.612;2022-07-30T01:23:20;1.45;;;1.10;;
69795;SDS011;57073;45.650;9.612;2022-07-30T01:27:35;2.28;;;1.00;;
69795;SDS011;57073;45.650;9.612;2022-07-30T01:29:40;1.80;;;1.20;;
69795;SDS011;57073;45.650;9.612;2022-07-30T01:31:43;1.58;;;1.00;;
69795;SDS011;57073;45.650;9.612;2022-07-30T01:33:46;2.13;;;0.98;;
69795;SDS011;57073;45.650;9.612;2022-07-30T01:35:49;1.30;;;0.90;;
69795;SDS011;57073;45.650;9.612;2022-07-30T01:37:52;1.67;;;0.88;;
69795;SDS011;57073;45.650;9.612;2022-07-30T01:39:53;1.50;;;1.02;;
69795;SDS011;57073;45.650;9.612;2022-07-30T01:41:55;1.98;;;0.98;;
69795;SDS011;57073;45.650;9.612;2022-07-30T01:43:57;1.35;;;0.93;;
69795;SDS011;57073;45.650;9.612;2022-07-30T01:45:59;1.30;;;0.80;;
69795;SDS011;57073;45.650;9.612;2022-07-30T01:48:02;1.77;;;1.00;;
69795;SDS011;57073;45.650;9.612;2022-07-30T01:50:06;1.40;;;0.98;;
69795;SDS011;57073;45.650;9.612;2022-07-30T01:52:13;1.20;;;0.90;;
69795;SDS011;57073;45.650;9.612;2022-07-30T01:54:15;3.28;;;1.00;;
69795;SDS011;57073;45.650;9.612;2022-07-30T01:56:18;3.10;;;0.93;;
69795;SDS011;57073;45.650;9.612;2022-07-30T01:58:23;3.65;;;1.00;;
69795;SDS011;57073;45.650;9.612;2022-07-30T02:00:27;3.50;;;1.02;;
69795;SDS011;57073;45.650;9.612;2022-07-30T02:02:35;2.42;;;1.20;;
69795;SDS011;57073;45.650;9.612;2022-07-30T02:04:37;1.83;;;1.02;;
69795;SDS011;57073;45.650;9.612;2022-07-30T02:06:39;2.90;;;0.97;;
69795;SDS011;57073;45.650;9.612;2022-07-30T02:08:44;3.35;;;1.08;;
69795;SDS011;57073;45.650;9.612;2022-07-30T02:13:39;3.80;;;0.97;;
69795;SDS011;57073;45.650;9.612;2022-07-30T02:15:56;1.50;;;0.80;;
69795;SDS011;57073;45.650;9.612;2022-07-30T02:18:17;1.23;;;0.90;;
69795;SDS011;57073;45.650;9.612;2022-07-30T02:20:22;1.75;;;0.95;;
69795;SDS011;57073;45.650;9.612;2022-07-30T02:22:27;2.13;;;1.10;;
69795;SDS011;57073;45.650;9.612;2022-07-30T02:24:33;1.77;;;1.00;;
69795;SDS011;57073;45.650;9.612;2022-07-30T02:26:37;2.35;;;1.00;;
69795;SDS011;57073;45.650;9.612;2022-07-30T02:28:40;1.45;;;1.10;;
69795;SDS011;57073;45.650;9.612;2022-07-30T02:30:47;1.80;;;1.08;;
69795;SDS011;57073;45.650;9.612;2022-07-30T02:32:51;2.03;;;0.98;;
69795;SDS011;57073;45.650;9.612;2022-07-30T02:34:58;2.27;;;1.00;;
69795;SDS011;57073;45.650;9.612;2022-07-30T02:37:04;1.15;;;0.70;;
69795;SDS011;57073;45.650;9.612;2022-07-30T02:39:06;1.98;;;1.00;;
69795;SDS011;57073;45.650;9.612;2022-07-30T02:41:08;1.35;;;1.00;;
69795;SDS011;57073;45.650;9.612;2022-07-30T02:43:10;2.35;;;0.93;;
69795;SDS011;57073;45.650;9.612;2022-07-30T02:45:15;7.70;;;1.30;;
69795;SDS011;57073;45.650;9.612;2022-07-30T02:47:16;1.50;;;1.00;;
69795;SDS011;57073;45.650;9.612;2022-07-30T02:49:20;2.38;;;1.08;;
69795;SDS011;57073;45.650;9.612;2022-07-30T02:51:23;2.88;;;1.00;;
69795;SDS011;57073;45.650;9.612;2022-07-30T02:53:24;1.38;;;1.00;;
69795;SDS011;57073;45.650;9.612;2022-07-30T02:55:27;2.30;;;1.07;;
69795;SDS011;57073;45.650;9.612;2022-07-30T02:57:30;2.55;;;1.10;;
69795;SDS011;57073;45.650;9.612;2022-07-30T02:59:32;2.88;;;0.90;;
69795;SDS011;57073;45.650;9.612;2022-07-30T03:01:35;2.28;;;0.90;;
69795;SDS011;57073;45.650;9.612;2022-07-30T03:03:36;1.23;;;1.00;;
69795;SDS011;57073;45.650;9.612;2022-07-30T03:05:39;2.23;;;0.70;;
69795;SDS011;57073;45.650;9.612;2022-07-30T03:07:40;2.10;;;1.10;;
69795;SDS011;57073;45.650;9.612;2022-07-30T03:09:43;1.77;;;1.00;;
69795;SDS011;57073;45.650;9.612;2022-07-30T03:11:46;3.35;;;0.70;;
69795;SDS011;57073;45.650;9.612;2022-07-30T03:13:52;2.78;;;0.85;;
69795;SDS011;57073;45.650;9.612;2022-07-30T03:15:53;2.13;;;0.87;;
69795;SDS011;57073;45.650;9.612;2022-07-30T03:17:55;1.50;;;0.80;;
69795;SDS011;57073;45.650;9.612;2022-07-30T03:19:58;1.53;;;0.80;;
69795;SDS011;57073;45.650;9.612;2022-07-30T03:22:00;1.40;;;1.05;;
69795;SDS011;57073;45.650;9.612;2022-07-30T03:24:03;1.88;;;0.93;;
69795;SDS011;57073;45.650;9.612;2022-07-30T03:26:06;1.90;;;0.70;;
69795;SDS011;57073;45.650;9.612;2022-07-30T03:28:08;1.75;;;0.90;;
69795;SDS011;57073;45.650;9.612;2022-07-30T03:30:11;1.80;;;0.70;;
69795;SDS011;57073;45.650;9.612;2022-07-30T03:32:12;1.40;;;0.70;;
69795;SDS011;57073;45.650;9.612;2022-07-30T03:34:13;3.10;;;0.63;;
69795;SDS011;57073;45.650;9.612;2022-07-30T03:36:13;1.50;;;0.60;;
69795;SDS011;57073;45.650;9.612;2022-07-30T03:38:16;1.27;;;0.88;;
69795;SDS011;57073;45.650;9.612;2022-07-30T03:40:17;2.35;;;0.70;;
69795;SDS011;57073;45.650;9.612;2022-07-30T03:42:18;1.20;;;0.80;;
69795;SDS011;57073;45.650;9.612;2022-07-30T03:44:20;1.80;;;0.70;;
69795;SDS011;57073;45.650;9.612;2022-07-30T03:46:22;2.00;;;0.80;;
69795;SDS011;57073;45.650;9.612;2022-07-30T03:48:23;0.80;;;0.60;;
69795;SDS011;57073;45.650;9.612;2022-07-30T03:50:24;1.02;;;0.70;;
69795;SDS011;57073;45.650;9.612;2022-07-30T03:52:26;1.98;;;0.75;;
69795;SDS011;57073;45.650;9.612;2022-07-30T03:54:27;1.60;;;0.87;;
69795;SDS011;57073;45.650;9.612;2022-07-30T03:56:30;1.35;;;0.70;;
69795;SDS011;57073;45.650;9.612;2022-07-30T03:58:30;2.55;;;1.00;;
69795;SDS011;57073;45.650;9.612;2022-07-30T04:00:31;2.37;;;0.93;;
69795;SDS011;57073;45.650;9.612;2022-07-30T04:02:39;1.30;;;0.90;;
69795;SDS011;57073;45.650;9.612;2022-07-30T04:04:41;2.65;;;1.10;;
69795;SDS011;57073;45.650;9.612;2022-07-30T04:06:42;1.60;;;1.00;;
69795;SDS011;57073;45.650;9.612;2022-07-30T04:08:42;3.05;;;1.15;;
69795;SDS011;57073;45.650;9.612;2022-07-30T04:10:43;1.50;;;1.07;;
69795;SDS011;57073;45.650;9.612;2022-07-30T04:12:43;1.40;;;1.00;;
69795;SDS011;57073;45.650;9.612;2022-07-30T04:14:43;1.37;;;1.13;;
69795;SDS011;57073;45.650;9.612;2022-07-30T04:16:53;4.20;;;1.10;;
69795;SDS011;57073;45.650;9.612;2022-07-30T04:19:01;1.90;;;1.10;;
69795;SDS011;57073;45.650;9.612;2022-07-30T04:21:04;3.00;;;1.00;;
69795;SDS011;57073;45.650;9.612;2022-07-30T04:23:06;1.80;;;1.30;;
69795;SDS011;57073;45.650;9.612;2022-07-30T04:25:08;2.70;;;1.40;;
69795;SDS011;57073;45.650;9.612;2022-07-30T04:27:09;2.35;;;1.20;;
69795;SDS011;57073;45.650;9.612;2022-07-30T04:29:13;1.93;;;1.30;;
69795;SDS011;57073;45.650;9.612;2022-07-30T04:31:14;2.97;;;1.10;;
69795;SDS011;57073;45.650;9.612;2022-07-30T04:33:15;3.53;;;1.20;;
69795;SDS011;57073;45.650;9.612;2022-07-30T04:35:15;2.23;;;1.10;;
69795;SDS011;57073;45.650;9.612;2022-07-30T04:37:16;3.00;;;1.10;;
69795;SDS011;57073;45.650;9.612;2022-07-30T04:39:18;2.63;;;1.27;;
69795;SDS011;57073;45.650;9.612;2022-07-30T04:41:19;1.70;;;1.20;;
69795;SDS011;57073;45.650;9.612;2022-07-30T04:43:19;3.13;;;1.13;;
69795;SDS011;57073;45.650;9.612;2022-07-30T04:45:19;1.50;;;0.97;;
69795;SDS011;57073;45.650;9.612;2022-07-30T04:47:20;2.17;;;1.00;;
69795;SDS011;57073;45.650;9.612;2022-07-30T04:49:21;2.45;;;1.10;;
69795;SDS011;57073;45.650;9.612;2022-07-30T04:51:23;2.92;;;1.30;;
69795;SDS011;57073;45.650;9.612;2022-07-30T04:53:28;4.70;;;1.23;;
69795;SDS011;57073;45.650;9.612;2022-07-30T04:55:29;2.77;;;1.30;;
69795;SDS011;57073;45.650;9.612;2022-07-30T04:57:32;2.13;;;1.30;;
69795;SDS011;57073;45.650;9.612;2022-07-30T04:59:34;2.95;;;1.00;;
69795;SDS011;57073;45.650;9.612;2022-07-30T05:01:36;2.67;;;1.00;;
69795;SDS011;57073;45.650;9.612;2022-07-30T05:03:40;1.35;;;1.00;;
69795;SDS011;57073;45.650;9.612;2022-07-30T05:05:41;1.60;;;1.10;;
69795;SDS011;57073;45.650;9.612;2022-07-30T05:07:43;2.22;;;1.00;;
69795;SDS011;57073;45.650;9.612;2022-07-30T05:09:44;2.85;;;1.08;;
69795;SDS011;57073;45.650;9.612;2022-07-30T05:11:51;0.93;;;0.80;;
69795;SDS011;57073;45.650;9.612;2022-07-30T05:13:53;3.60;;;1.25;;
69795;SDS011;57073;45.650;9.612;2022-07-30T05:15:53;2.50;;;0.98;;
69795;SDS011;57073;45.650;9.612;2022-07-30T05:17:54;1.87;;;0.90;;
69795;SDS011;57073;45.650;9.612;2022-07-30T05:19:54;5.27;;;1.03;;
69795;SDS011;57073;45.650;9.612;2022-07-30T05:21:55;1.17;;;1.00;;
69795;SDS011;57073;45.650;9.612;2022-07-30T05:23:55;2.00;;;1.10;;
69795;SDS011;57073;45.650;9.612;2022-07-30T05:25:55;3.10;;;1.27;;
69795;SDS011;57073;45.650;9.612;2022-07-30T05:27:56;2.83;;;1.10;;
69795;SDS011;57073;45.650;9.612;2022-07-30T05:29:57;2.73;;;1.10;;
69795;SDS011;57073;45.650;9.612;2022-07-30T05:31:57;1.97;;;0.90;;
69795;SDS011;57073;45.650;9.612;2022-07-30T05:33:58;1.58;;;1.17;;
69795;SDS011;57073;45.650;9.612;2022-07-30T05:35:58;1.83;;;1.00;;
69795;SDS011;57073;45.650;9.612;2022-07-30T05:37:59;1.25;;;1.00;;
69795;SDS011;57073;45.650;9.612;2022-07-30T05:40:00;2.70;;;0.87;;
69795;SDS011;57073;45.650;9.612;2022-07-30T05:42:00;3.97;;;0.80;;
69795;SDS011;57073;45.650;9.612;2022-07-30T05:44:01;2.57;;;0.60;;
69795;SDS011;57073;45.650;9.612;2022-07-30T05:46:01;1.30;;;0.67;;
69795;SDS011;57073;45.650;9.612;2022-07-30T05:48:01;2.57;;;0.73;;
69795;SDS011;57073;45.650;9.612;2022-07-30T05:50:02;1.60;;;0.73;;
69795;SDS011;57073;45.650;9.612;2022-07-30T05:52:03;2.50;;;0.80;;
69795;SDS011;57073;45.650;9.612;2022-07-30T05:54:03;1.25;;;0.70;;
69795;SDS011;57073;45.650;9.612;2022-07-30T05:56:04;1.10;;;0.70;;
69795;SDS011;57073;45.650;9.612;2022-07-30T05:58:05;1.00;;;0.80;;
69795;SDS011;57073;45.650;9.612;2022-07-30T06:00:07;5.57;;;1.00;;
69795;SDS011;57073;45.650;9.612;2022-07-30T06:02:08;3.42;;;0.73;;
69795;SDS011;57073;45.650;9.612;2022-07-30T06:04:09;1.87;;;0.90;;
69795;SDS011;57073;45.650;9.612;2022-07-30T06:06:09;1.50;;;0.80;;
69795;SDS011;57073;45.650;9.612;2022-07-30T06:08:10;1.60;;;0.90;;
69795;SDS011;57073;45.650;9.612;2022-07-30T06:10:10;1.93;;;0.80;;
69795;SDS011;57073;45.650;9.612;2022-07-30T06:12:11;1.73;;;0.90;;
69795;SDS011;57073;45.650;9.612;2022-07-30T06:14:11;1.27;;;0.80;;
69795;SDS011;57073;45.650;9.612;2022-07-30T06:16:11;0.87;;;0.80;;
69795;SDS011;57073;45.650;9.612;2022-07-30T06:18:12;1.37;;;0.90;;
69795;SDS011;57073;45.650;9.612;2022-07-30T06:20:13;1.13;;;1.00;;
69795;SDS011;57073;45.650;9.612;2022-07-30T06:22:16;1.73;;;0.82;;
69795;SDS011;57073;45.650;9.612;2022-07-30T06:24:17;2.38;;;1.10;;
69795;SDS011;57073;45.650;9.612;2022-07-30T06:26:17;1.70;;;1.10;;
69795;SDS011;57073;45.650;9.612;2022-07-30T06:28:18;3.53;;;1.20;;
69795;SDS011;57073;45.650;9.612;2022-07-30T06:30:18;1.98;;;1.20;;
69795;SDS011;57073;45.650;9.612;2022-07-30T06:32:18;1.83;;;1.30;;
69795;SDS011;57073;45.650;9.612;2022-07-30T06:34:19;2.60;;;1.13;;
69795;SDS011;57073;45.650;9.612;2022-07-30T06:36:19;4.13;;;1.30;;
69795;SDS011;57073;45.650;9.612;2022-07-30T06:38:22;3.00;;;1.10;;
69795;SDS011;57073;45.650;9.612;2022-07-30T06:40:22;2.20;;;1.10;;
69795;SDS011;57073;45.650;9.612;2022-07-30T06:42:23;2.20;;;1.00;;
69795;SDS011;57073;45.650;9.612;2022-07-30T06:44:23;2.70;;;1.20;;
69795;SDS011;57073;45.650;9.612;2022-07-30T06:46:24;2.13;;;1.00;;
69795;SDS011;57073;45.650;9.612;2022-07-30T06:48:24;3.60;;;1.00;;
69795;SDS011;57073;45.650;9.612;2022-07-30T06:50:25;1.97;;;1.10;;
69795;SDS011;57073;45.650;9.612;2022-07-30T06:52:25;3.28;;;1.08;;
69795;SDS011;57073;45.650;9.612;2022-07-30T06:54:26;1.10;;;1.00;;
69795;SDS011;57073;45.650;9.612;2022-07-30T06:56:27;1.60;;;1.03;;
69795;SDS011;57073;45.650;9.612;2022-07-30T06:58:27;2.15;;;1.20;;
69795;SDS011;57073;45.650;9.612;2022-07-30T07:00:28;1.83;;;1.00;;
69795;SDS011;57073;45.650;9.612;2022-07-30T07:02:29;1.55;;;1.00;;
69795;SDS011;57073;45.650;9.612;2022-07-30T07:04:29;1.90;;;1.20;;
69795;SDS011;57073;45.650;9.612;2022-07-30T07:06:31;2.22;;;1.00;;
69795;SDS011;57073;45.650;9.612;2022-07-30T07:08:34;1.47;;;0.90;;
69795;SDS011;57073;45.650;9.612;2022-07-30T07:10:35;1.33;;;1.00;;
69795;SDS011;57073;45.650;9.612;2022-07-30T07:12:35;1.67;;;1.20;;
69795;SDS011;57073;45.650;9.612;2022-07-30T07:14:35;1.63;;;1.00;;
69795;SDS011;57073;45.650;9.612;2022-07-30T07:16:36;2.95;;;1.20;;
69795;SDS011;57073;45.650;9.612;2022-07-30T07:18:36;1.90;;;1.20;;
69795;SDS011;57073;45.650;9.612;2022-07-30T07:20:37;1.33;;;1.10;;
69795;SDS011;57073;45.650;9.612;2022-07-30T07:22:37;2.17;;;1.40;;
69795;SDS011;57073;45.650;9.612;2022-07-30T07:24:37;1.80;;;1.30;;
69795;SDS011;57073;45.650;9.612;2022-07-30T07:26:38;1.60;;;1.50;;
69795;SDS011;57073;45.650;9.612;2022-07-30T07:28:39;1.77;;;1.40;;
69795;SDS011;57073;45.650;9.612;2022-07-30T07:30:40;2.50;;;1.40;;
69795;SDS011;57073;45.650;9.612;2022-07-30T07:32:42;1.50;;;1.35;;
69795;SDS011;57073;45.650;9.612;2022-07-30T07:34:42;1.90;;;1.50;;
69795;SDS011;57073;45.650;9.612;2022-07-30T07:36:42;2.07;;;1.30;;
69795;SDS011;57073;45.650;9.612;2022-07-30T07:38:43;3.67;;;1.57;;
69795;SDS011;57073;45.650;9.612;2022-07-30T07:40:43;1.60;;;1.37;;
69795;SDS011;57073;45.650;9.612;2022-07-30T07:42:44;1.73;;;1.43;;
69795;SDS011;57073;45.650;9.612;2022-07-30T07:44:44;1.75;;;1.30;;
69795;SDS011;57073;45.650;9.612;2022-07-30T07:46:45;2.63;;;1.30;;
69795;SDS011;57073;45.650;9.612;2022-07-30T07:48:46;2.65;;;1.30;;
69795;SDS011;57073;45.650;9.612;2022-07-30T07:50:46;1.30;;;1.03;;
69795;SDS011;57073;45.650;9.612;2022-07-30T07:52:47;2.20;;;1.20;;
69795;SDS011;57073;45.650;9.612;2022-07-30T07:54:48;2.40;;;1.25;;
69795;SDS011;57073;45.650;9.612;2022-07-30T07:56:48;1.23;;;1.13;;
69795;SDS011;57073;45.650;9.612;2022-07-30T07:58:50;2.03;;;1.42;;
69795;SDS011;57073;45.650;9.612;2022-07-30T08:00:53;2.60;;;1.58;;
69795;SDS011;57073;45.650;9.612;2022-07-30T08:02:53;2.47;;;1.30;;
69795;SDS011;57073;45.650;9.612;2022-07-30T08:04:54;2.73;;;1.50;;
69795;SDS011;57073;45.650;9.612;2022-07-30T08:06:54;2.50;;;1.60;;
69795;SDS011;57073;45.650;9.612;2022-07-30T08:08:56;2.07;;;1.60;;
69795;SDS011;57073;45.650;9.612;2022-07-30T08:10:56;2.83;;;2.00;;
69795;SDS011;57073;45.650;9.612;2022-07-30T08:12:57;2.77;;;2.00;;
69795;SDS011;57073;45.650;9.612;2022-07-30T08:14:57;2.80;;;2.10;;
69795;SDS011;57073;45.650;9.612;2022-07-30T08:16:57;3.70;;;2.83;;
69795;SDS011;57073;45.650;9.612;2022-07-30T08:18:58;3.00;;;2.13;;
69795;SDS011;57073;45.650;9.612;2022-07-30T08:20:58;4.43;;;2.30;;
69795;SDS011;57073;45.650;9.612;2022-07-30T08:22:59;3.13;;;2.55;;
69795;SDS011;57073;45.650;9.612;2022-07-30T08:25:01;4.90;;;2.73;;
69795;SDS011;57073;45.650;9.612;2022-07-30T08:27:01;8.02;;;2.85;;
69795;SDS011;57073;45.650;9.612;2022-07-30T08:29:02;5.10;;;2.70;;
69795;SDS011;57073;45.650;9.612;2022-07-30T08:31:02;3.50;;;2.85;;
69795;SDS011;57073;45.650;9.612;2022-07-30T08:33:03;3.67;;;2.50;;
69795;SDS011;57073;45.650;9.612;2022-07-30T08:35:03;4.20;;;2.70;;
69795;SDS011;57073;45.650;9.612;2022-07-30T08:37:04;5.75;;;2.63;;
69795;SDS011;57073;45.650;9.612;2022-07-30T08:39:05;4.30;;;2.60;;
69795;SDS011;57073;45.650;9.612;2022-07-30T08:41:05;5.40;;;3.10;;
69795;SDS011;57073;45.650;9.612;2022-07-30T08:43:06;4.70;;;3.08;;
69795;SDS011;57073;45.650;9.612;2022-07-30T08:45:07;3.42;;;2.60;;
69795;SDS011;57073;45.650;9.612;2022-07-30T08:47:09;4.30;;;3.38;;
69795;SDS011;57073;45.650;9.612;2022-07-30T08:49:15;4.33;;;3.20;;
69795;SDS011;57073;45.650;9.612;2022-07-30T08:51:17;4.30;;;3.28;;
69795;SDS011;57073;45.650;9.612;2022-07-30T08:53:18;5.38;;;3.40;;
69795;SDS011;57073;45.650;9.612;2022-07-30T08:55:19;5.40;;;3.27;;
69795;SDS011;57073;45.650;9.612;2022-07-30T08:57:20;5.55;;;3.47;;
69795;SDS011;57073;45.650;9.612;2022-07-30T08:59:22;4.60;;;3.25;;
69795;SDS011;57073;45.650;9.612;2022-07-30T09:01:25;3.73;;;2.80;;
69795;SDS011;57073;45.650;9.612;2022-07-30T09:03:26;4.70;;;3.28;;
69795;SDS011;57073;45.650;9.612;2022-07-30T09:05:26;5.90;;;3.33;;
69795;SDS011;57073;45.650;9.612;2022-07-30T09:07:27;4.87;;;3.07;;
69795;SDS011;57073;45.650;9.612;2022-07-30T09:09:27;4.83;;;2.90;;
69795;SDS011;57073;45.650;9.612;2022-07-30T09:11:28;5.90;;;3.20;;
69795;SDS011;57073;45.650;9.612;2022-07-30T09:13:38;4.65;;;3.38;;
69795;SDS011;57073;45.650;9.612;2022-07-30T09:15:40;3.88;;;3.20;;
69795;SDS011;57073;45.650;9.612;2022-07-30T09:20:03;3.65;;;2.90;;
69795;SDS011;57073;45.650;9.612;2022-07-30T09:22:05;5.60;;;3.58;;
69795;SDS011;57073;45.650;9.612;2022-07-30T09:24:10;5.43;;;4.57;;
69795;SDS011;57073;45.650;9.612;2022-07-30T09:26:11;5.68;;;3.97;;
69795;SDS011;57073;45.650;9.612;2022-07-30T09:28:12;8.67;;;4.40;;
69795;SDS011;57073;45.650;9.612;2022-07-30T09:30:13;6.32;;;3.90;;
69795;SDS011;57073;45.650;9.612;2022-07-30T09:32:14;4.70;;;4.10;;
69795;SDS011;57073;45.650;9.612;2022-07-30T09:36:30;5.93;;;3.10;;
69795;SDS011;57073;45.650;9.612;2022-07-30T09:41:00;5.07;;;3.45;;
69795;SDS011;57073;45.650;9.612;2022-07-30T09:43:07;4.53;;;3.30;;
69795;SDS011;57073;45.650;9.612;2022-07-30T09:45:10;5.88;;;3.95;;
69795;SDS011;57073;45.650;9.612;2022-07-30T09:47:31;5.20;;;3.50;;
69795;SDS011;57073;45.650;9.612;2022-07-30T09:49:34;3.83;;;2.88;;
69795;SDS011;57073;45.650;9.612;2022-07-30T09:51:37;4.57;;;2.85;;
69795;SDS011;57073;45.650;9.612;2022-07-30T09:53:54;4.43;;;2.90;;
69795;SDS011;57073;45.650;9.612;2022-07-30T09:55:58;5.82;;;3.00;;
69795;SDS011;57073;45.650;9.612;2022-07-30T09:58:00;2.95;;;2.60;;
69795;SDS011;57073;45.650;9.612;2022-07-30T10:00:19;4.55;;;2.72;;
69795;SDS011;57073;45.650;9.612;2022-07-30T10:02:28;3.92;;;2.53;;
69795;SDS011;57073;45.650;9.612;2022-07-30T10:04:31;4.60;;;2.20;;
69795;SDS011;57073;45.650;9.612;2022-07-30T10:06:32;3.35;;;2.28;;
69795;SDS011;57073;45.650;9.612;2022-07-30T10:08:44;4.80;;;2.83;;
69795;SDS011;57073;45.650;9.612;2022-07-30T10:10:49;3.45;;;1.98;;
69795;SDS011;57073;45.650;9.612;2022-07-30T10:12:50;3.23;;;2.10;;
69795;SDS011;57073;45.650;9.612;2022-07-30T10:14:53;4.45;;;2.33;;
69795;SDS011;57073;45.650;9.612;2022-07-30T10:16:55;4.90;;;3.40;;
69795;SDS011;57073;45.650;9.612;2022-07-30T10:18:57;4.60;;;3.30;;
69795;SDS011;57073;45.650;9.612;2022-07-30T10:20:59;3.72;;;2.83;;
69795;SDS011;57073;45.650;9.612;2022-07-30T10:23:00;5.32;;;3.58;;
69795;SDS011;57073;45.650;9.612;2022-07-30T10:25:02;4.25;;;3.25;;
69795;SDS011;57073;45.650;9.612;2022-07-30T10:27:03;4.75;;;2.88;;
69795;SDS011;57073;45.650;9.612;2022-07-30T10:29:04;3.77;;;3.00;;
69795;SDS011;57073;45.650;9.612;2022-07-30T10:31:04;5.00;;;2.60;;
69795;SDS011;57073;45.650;9.612;2022-07-30T10:33:05;4.43;;;2.70;;
69795;SDS011;57073;45.650;9.612;2022-07-30T10:35:07;4.80;;;3.00;;
69795;SDS011;57073;45.650;9.612;2022-07-30T10:37:08;3.58;;;3.22;;
69795;SDS011;57073;45.650;9.612;2022-07-30T10:39:11;6.33;;;3.30;;
69795;SDS011;57073;45.650;9.612;2022-07-30T10:46:28;5.80;;;4.20;;
69795;SDS011;57073;45.650;9.612;2022-07-30T10:48:42;6.18;;;4.03;;
69795;SDS011;57073;45.650;9.612;2022-07-30T10:50:55;5.90;;;4.20;;
69795;SDS011;57073;45.650;9.612;2022-07-30T10:52:57;6.63;;;3.20;;
69795;SDS011;57073;45.650;9.612;2022-07-30T10:55:00;10.43;;;4.83;;
69795;SDS011;57073;45.650;9.612;2022-07-30T10:59:05;5.90;;;4.53;;
69795;SDS011;57073;45.650;9.612;2022-07-30T11:01:07;4.63;;;3.33;;
69795;SDS011;57073;45.650;9.612;2022-07-30T11:05:22;7.35;;;3.80;;
69795;SDS011;57073;45.650;9.612;2022-07-30T11:07:27;6.68;;;4.70;;
69795;SDS011;57073;45.650;9.612;2022-07-30T11:09:35;4.80;;;3.80;;
69795;SDS011;57073;45.650;9.612;2022-07-30T11:11:40;6.05;;;4.15;;
69795;SDS011;57073;45.650;9.612;2022-07-30T11:13:49;5.77;;;4.50;;
69795;SDS011;57073;45.650;9.612;2022-07-30T11:15:55;6.38;;;5.28;;
69795;SDS011;57073;45.650;9.612;2022-07-30T11:18:04;6.80;;;5.50;;
69795;SDS011;57073;45.650;9.612;2022-07-30T11:22:21;9.38;;;7.93;;
69795;SDS011;57073;45.650;9.612;2022-07-30T11:26:47;7.80;;;5.88;;
69795;SDS011;57073;45.650;9.612;2022-07-30T11:28:48;8.38;;;6.45;;
69795;SDS011;57073;45.650;9.612;2022-07-30T11:30:49;9.50;;;6.20;;
69795;SDS011;57073;45.650;9.612;2022-07-30T11:32:55;6.30;;;5.68;;
69795;SDS011;57073;45.650;9.612;2022-07-30T11:37:20;9.07;;;6.32;;
69795;SDS011;57073;45.650;9.612;2022-07-30T11:39:21;8.13;;;6.90;;
69795;SDS011;57073;45.650;9.612;2022-07-30T11:41:21;8.93;;;6.47;;
69795;SDS011;57073;45.650;9.612;2022-07-30T11:43:27;9.82;;;6.78;;
69795;SDS011;57073;45.650;9.612;2022-07-30T11:45:35;6.97;;;6.03;;
69795;SDS011;57073;45.650;9.612;2022-07-30T11:47:35;7.80;;;5.78;;
69795;SDS011;57073;45.650;9.612;2022-07-30T11:49:36;6.40;;;5.60;;
69795;SDS011;57073;45.650;9.612;2022-07-30T11:51:39;5.80;;;4.88;;
69795;SDS011;57073;45.650;9.612;2022-07-30T11:53:41;5.17;;;4.10;;
69795;SDS011;57073;45.650;9.612;2022-07-30T11:55:43;9.25;;;6.50;;
69795;SDS011;57073;45.650;9.612;2022-07-30T11:57:49;8.88;;;7.10;;
69795;SDS011;57073;45.650;9.612;2022-07-30T11:59:53;7.47;;;6.40;;
69795;SDS011;57073;45.650;9.612;2022-07-30T12:01:54;7.53;;;6.45;;
69795;SDS011;57073;45.650;9.612;2022-07-30T12:04:04;9.35;;;6.50;;
69795;SDS011;57073;45.650;9.612;2022-07-30T12:06:06;8.95;;;5.80;;
69795;SDS011;57073;45.650;9.612;2022-07-30T12:08:12;7.95;;;5.40;;
69795;SDS011;57073;45.650;9.612;2022-07-30T12:10:14;7.97;;;5.53;;
69795;SDS011;57073;45.650;9.612;2022-07-30T12:12:23;7.50;;;4.30;;
69795;SDS011;57073;45.650;9.612;2022-07-30T12:14:24;5.82;;;4.30;;
69795;SDS011;57073;45.650;9.612;2022-07-30T12:16:25;4.83;;;4.43;;
69795;SDS011;57073;45.650;9.612;2022-07-30T12:18:27;8.43;;;4.83;;
69795;SDS011;57073;45.650;9.612;2022-07-30T12:20:28;6.15;;;4.82;;
69795;SDS011;57073;45.650;9.612;2022-07-30T12:22:32;6.78;;;5.13;;
69795;SDS011;57073;45.650;9.612;2022-07-30T12:24:33;5.87;;;4.30;;
69795;SDS011;57073;45.650;9.612;2022-07-30T12:26:33;4.70;;;4.20;;
69795;SDS011;57073;45.650;9.612;2022-07-30T12:28:34;4.63;;;3.50;;
69795;SDS011;57073;45.650;9.612;2022-07-30T12:30:38;6.53;;;4.10;;
69795;SDS011;57073;45.650;9.612;2022-07-30T12:32:40;5.82;;;3.97;;
69795;SDS011;57073;45.650;9.612;2022-07-30T12:34:41;6.03;;;4.70;;
69795;SDS011;57073;45.650;9.612;2022-07-30T12:36:53;5.20;;;3.80;;
69795;SDS011;57073;45.650;9.612;2022-07-30T12:38:54;5.40;;;3.90;;
69795;SDS011;57073;45.650;9.612;2022-07-30T12:43:01;4.87;;;3.70;;
69795;SDS011;57073;45.650;9.612;2022-07-30T12:45:02;5.68;;;4.40;;
69795;SDS011;57073;45.650;9.612;2022-07-30T12:47:03;4.40;;;3.90;;